Time;durP1;ratioP1;P1;durP2;ratioP2;P2;SDS_P1;SDS_P2;PMS_P1;PMS_P2;Temp;Humidity;BMP_temperature;BMP_pressure;BME280_temperature;BME280_humidity;BME280_pressure;Samples;Min_cycle;Max_cycle;Signal;HPM_P1;HPM_P2
2021/05/09 00:01:25;;;;;;;3.20;0.77;;;22.30;32.40;;;;;;4373919;32;20082;-35
2021/05/09 00:03:52;;;;;;;2.28;0.90;;;22.20;32.50;;;;;;4372298;32;20088;-35
2021/05/09 00:06:18;;;;;;;4.80;1.33;;;22.10;32.60;;;;;;4374115;32;20070;-35
2021/05/09 00:08:45;;;;;;;6.72;0.90;;;22.10;32.70;;;;;;4373407;32;20132;-35
2021/05/09 00:11:11;;;;;;;4.22;1.00;;;22.10;32.90;;;;;;4374020;32;20494;-35
2021/05/09 00:13:38;;;;;;;2.15;1.30;;;22.10;33.20;;;;;;4370843;32;20698;-34
2021/05/09 00:16:05;;;;;;;4.07;0.93;;;22.10;33.20;;;;;;4370961;32;20105;-35
2021/05/09 00:18:31;;;;;;;6.57;0.88;;;22.20;33.20;;;;;;4358769;32;20689;-35
2021/05/09 00:20:58;;;;;;;2.33;1.10;;;22.20;33.20;;;;;;4371147;32;20093;-35
2021/05/09 00:23:25;;;;;;;1.95;1.17;;;22.20;33.20;;;;;;4358715;32;20058;-34
2021/05/09 00:25:51;;;;;;;1.98;0.80;;;22.20;33.10;;;;;;4371029;32;20529;-35
2021/05/09 00:28:18;;;;;;;1.42;1.00;;;22.30;33.20;;;;;;4371122;32;20086;-35
2021/05/09 00:30:44;;;;;;;1.65;1.00;;;22.30;33.20;;;;;;4358410;32;20593;-34
2021/05/09 00:33:11;;;;;;;3.90;0.90;;;22.30;33.10;;;;;;4371105;32;20069;-35
2021/05/09 00:35:37;;;;;;;4.10;1.05;;;22.40;33.10;;;;;;4371281;32;20062;-34
2021/05/09 00:38:03;;;;;;;1.73;0.80;;;22.40;33.10;;;;;;4356056;32;20090;-35
2021/05/09 00:40:30;;;;;;;3.72;0.88;;;22.50;33.10;;;;;;4355701;32;20078;-35
2021/05/09 00:42:56;;;;;;;3.60;1.10;;;22.50;33.10;;;;;;4356109;32;20077;-35
2021/05/09 00:45:23;;;;;;;6.82;1.30;;;22.60;33.10;;;;;;4331076;32;20097;-34
2021/05/09 00:47:50;;;;;;;1.75;0.80;;;22.60;33.10;;;;;;4366556;32;20066;-35
2021/05/09 00:50:17;;;;;;;3.60;0.90;;;22.70;33.10;;;;;;4359198;32;20150;-35
2021/05/09 00:52:46;;;;;;;1.37;1.08;;;22.70;33.10;;;;;;4360728;32;20062;-35
2021/05/09 00:55:13;;;;;;;4.90;1.30;;;22.80;33.10;;;;;;4359943;32;20100;-36
2021/05/09 00:57:40;;;;;;;7.03;1.25;;;22.80;33.10;;;;;;4371918;32;20566;-35
2021/05/09 01:00:09;;;;;;;8.45;1.98;;;22.80;33.10;;;;;;4358347;32;20086;-33
2021/05/09 01:02:36;;;;;;;3.58;1.20;;;22.80;33.30;;;;;;4370227;32;20105;-34
2021/05/09 01:05:03;;;;;;;2.12;0.80;;;22.80;33.20;;;;;;4370512;32;20149;-34
2021/05/09 01:07:30;;;;;;;4.55;1.30;;;22.80;33.30;;;;;;4370541;32;20100;-34
2021/05/09 01:09:59;;;;;;;5.90;1.50;;;22.80;33.20;;;;;;4382065;32;20576;-34
2021/05/09 01:12:25;;;;;;;5.68;1.15;;;22.90;33.30;;;;;;4371533;32;20100;-33
2021/05/09 01:14:51;;;;;;;5.32;1.50;;;22.90;33.40;;;;;;4373110;32;20061;-33
2021/05/09 01:17:18;;;;;;;4.03;1.10;;;22.90;33.50;;;;;;4373022;32;20062;-36
2021/05/09 01:19:44;;;;;;;2.05;1.10;;;22.90;33.60;;;;;;4371400;32;20483;-35
2021/05/09 01:22:11;;;;;;;1.67;1.35;;;22.80;33.50;;;;;;4371603;32;20089;-35
2021/05/09 01:24:39;;;;;;;4.45;1.12;;;22.80;33.60;;;;;;4373046;32;20583;-35
2021/05/09 01:27:06;;;;;;;3.72;1.48;;;22.80;33.60;;;;;;4372626;32;20148;-35
2021/05/09 01:29:33;;;;;;;4.43;1.27;;;22.90;33.50;;;;;;4372995;32;20074;-36
2021/05/09 01:32:00;;;;;;;6.72;1.45;;;22.80;33.60;;;;;;4355202;32;20101;-35
2021/05/09 01:34:33;;;;;;;5.97;1.17;;;22.80;33.80;;;;;;4355291;32;20173;-34
2021/05/09 01:37:00;;;;;;;3.40;0.80;;;22.80;33.80;;;;;;4355744;32;20055;-35
2021/05/09 01:39:27;;;;;;;4.47;1.05;;;22.80;33.80;;;;;;4343108;32;20087;-34
2021/05/09 01:41:53;;;;;;;1.75;0.80;;;22.80;33.80;;;;;;4355471;32;20184;-35
2021/05/09 01:44:19;;;;;;;9.07;1.60;;;22.90;33.80;;;;;;4355265;32;20596;-35
2021/05/09 01:46:46;;;;;;;4.03;1.17;;;22.90;33.80;;;;;;4359122;32;20090;-35
2021/05/09 01:49:12;;;;;;;5.93;1.37;;;23.00;33.60;;;;;;4370358;32;20074;-35
2021/05/09 01:51:39;;;;;;;2.15;1.10;;;23.10;33.50;;;;;;4369934;32;20104;-35
2021/05/09 01:54:05;;;;;;;3.50;1.00;;;23.30;33.40;;;;;;4370586;32;20084;-35
2021/05/09 01:56:32;;;;;;;3.70;1.02;;;23.50;33.20;;;;;;4358121;32;20075;-35
2021/05/09 01:58:58;;;;;;;2.35;0.90;;;23.70;33.10;;;;;;4373369;32;20097;-35
2021/05/09 02:01:24;;;;;;;13.82;2.83;;;23.90;32.70;;;;;;4373246;32;20072;-36
2021/05/09 02:03:52;;;;;;;4.60;1.33;;;24.10;32.70;;;;;;4387945;32;20954;-35
2021/05/09 02:06:18;;;;;;;7.50;3.08;;;24.20;32.20;;;;;;4390902;32;20081;-34
2021/05/09 02:08:45;;;;;;;4.18;1.10;;;24.50;32.10;;;;;;4390777;32;20073;-36
2021/05/09 02:11:11;;;;;;;2.40;1.00;;;24.60;31.80;;;;;;4390735;32;20073;-36
2021/05/09 02:13:37;;;;;;;5.95;0.80;;;24.80;31.50;;;;;;4390511;32;20066;-36
2021/05/09 02:16:04;;;;;;;5.62;0.90;;;25.00;31.20;;;;;;4390386;32;20073;-36
2021/05/09 02:18:31;;;;;;;1.92;0.88;;;25.30;30.80;;;;;;4390161;32;20066;-36
2021/05/09 02:20:57;;;;;;;3.25;1.75;;;25.70;30.30;;;;;;4390667;32;20065;-36
2021/05/09 02:23:24;;;;;;;1.00;0.75;;;26.00;29.90;;;;;;4390410;32;20162;-36
2021/05/09 02:25:50;;;;;;;3.25;1.15;;;26.30;29.60;;;;;;4390343;32;20089;-36
2021/05/09 02:28:17;;;;;;;4.25;1.62;;;26.70;29.30;;;;;;4390911;32;20066;-36
2021/05/09 02:30:43;;;;;;;3.42;1.05;;;27.00;28.90;;;;;;4390004;32;20069;-37
2021/05/09 02:33:13;;;;;;;6.68;1.70;;;27.40;28.70;;;;;;4389993;32;20089;-35
2021/05/09 02:35:39;;;;;;;5.03;1.35;;;27.80;28.40;;;;;;4388743;32;20582;-35
2021/05/09 02:38:06;;;;;;;3.35;0.70;;;28.20;27.90;;;;;;4390314;32;20077;-35
2021/05/09 02:40:33;;;;;;;3.83;1.35;;;28.50;27.50;;;;;;4390437;32;20058;-36
2021/05/09 02:42:59;;;;;;;3.92;0.50;;;28.90;27.20;;;;;;4388220;32;20073;-36
2021/05/09 02:45:26;;;;;;;2.95;0.70;;;29.10;27.00;;;;;;4389832;32;20073;-36
2021/05/09 02:47:52;;;;;;;1.95;0.70;;;29.40;26.40;;;;;;4365469;32;20069;-35
2021/05/09 02:50:18;;;;;;;2.97;0.80;;;29.70;26.30;;;;;;4373478;32;20104;-36
2021/05/09 02:52:45;;;;;;;1.95;0.60;;;29.90;26.10;;;;;;4374529;32;20116;-36
2021/05/09 02:55:12;;;;;;;3.90;1.08;;;30.20;26.00;;;;;;4372010;32;20086;-36
2021/05/09 02:57:39;;;;;;;2.62;0.60;;;30.40;25.60;;;;;;4372110;32;20550;-36
2021/05/09 03:00:06;;;;;;;4.32;0.75;;;30.50;25.40;;;;;;4372308;32;20072;-36
2021/05/09 03:02:32;;;;;;;1.40;0.70;;;30.60;25.30;;;;;;4372138;32;20073;-38
2021/05/09 03:04:59;;;;;;;1.62;0.60;;;30.80;25.30;;;;;;4372365;32;20092;-35
2021/05/09 03:07:25;;;;;;;3.83;0.95;;;31.00;25.20;;;;;;4371824;32;20070;-36
2021/05/09 03:09:51;;;;;;;3.03;0.70;;;31.20;25.00;;;;;;4372445;32;20058;-37
2021/05/09 03:12:18;;;;;;;3.42;0.62;;;31.30;24.90;;;;;;4372556;32;20088;-37
2021/05/09 03:14:44;;;;;;;4.47;1.35;;;31.50;24.60;;;;;;4372126;32;20158;-37
2021/05/09 03:17:11;;;;;;;1.30;0.68;;;31.50;24.50;;;;;;4372339;32;20067;-36
2021/05/09 03:19:37;;;;;;;4.12;0.60;;;31.50;24.40;;;;;;4371863;32;20156;-37
2021/05/09 03:22:03;;;;;;;3.28;0.60;;;31.50;24.40;;;;;;4372025;32;20192;-39
2021/05/09 03:24:30;;;;;;;4.72;1.12;;;31.50;24.40;;;;;;4371742;32;20163;-36
2021/05/09 03:26:56;;;;;;;4.85;0.65;;;31.50;24.50;;;;;;4371974;32;20082;-36
2021/05/09 03:29:22;;;;;;;2.33;0.60;;;31.40;24.40;;;;;;4372007;32;20077;-38
2021/05/09 03:31:49;;;;;;;0.93;0.60;;;31.40;24.50;;;;;;4372459;32;20539;-36
2021/05/09 03:34:15;;;;;;;1.70;0.60;;;31.40;24.40;;;;;;4374333;32;20054;-37
2021/05/09 03:36:42;;;;;;;2.87;0.95;;;31.50;24.40;;;;;;4374246;32;20050;-36
2021/05/09 03:39:08;;;;;;;1.95;0.70;;;31.60;24.30;;;;;;4373946;32;20058;-38
2021/05/09 03:41:35;;;;;;;3.00;0.50;;;31.70;24.30;;;;;;4374155;32;20073;-38
2021/05/09 03:44:01;;;;;;;6.05;0.70;;;31.80;24.30;;;;;;4374252;32;20074;-37
2021/05/09 03:46:27;;;;;;;1.12;0.70;;;31.90;24.10;;;;;;4373792;32;20092;-37
2021/05/09 03:48:54;;;;;;;3.15;0.60;;;32.10;24.00;;;;;;4374276;32;20199;-37
2021/05/09 03:51:20;;;;;;;1.65;0.50;;;32.10;23.90;;;;;;4374095;32;20069;-37
2021/05/09 03:53:48;;;;;;;3.92;0.73;;;32.30;23.90;;;;;;4373972;32;20070;-38
2021/05/09 03:56:14;;;;;;;1.00;0.50;;;32.30;23.60;;;;;;4374038;32;20067;-37
2021/05/09 03:58:40;;;;;;;9.75;1.50;;;32.50;23.50;;;;;;4373939;32;20065;-37
2021/05/09 04:01:07;;;;;;;1.67;0.50;;;32.60;23.50;;;;;;4373732;32;20093;-38
2021/05/09 04:03:33;;;;;;;2.97;0.70;;;32.60;23.40;;;;;;4373862;32;20137;-37
2021/05/09 04:06:00;;;;;;;2.45;0.90;;;32.70;23.50;;;;;;4373948;32;20082;-37
2021/05/09 04:08:27;;;;;;;4.18;0.70;;;32.80;23.50;;;;;;4373848;32;20121;-37
2021/05/09 04:10:56;;;;;;;5.00;0.55;;;32.80;23.60;;;;;;4384599;32;20078;-38
2021/05/09 04:13:22;;;;;;;1.75;0.57;;;32.90;23.60;;;;;;4374130;32;20131;-38
2021/05/09 04:15:49;;;;;;;1.73;0.60;;;33.00;23.60;;;;;;4373621;32;20066;-38
2021/05/09 04:18:16;;;;;;;2.60;0.57;;;33.20;23.40;;;;;;4373805;32;20081;-37
2021/05/09 04:20:42;;;;;;;2.60;0.50;;;33.30;23.30;;;;;;4373013;32;20071;-37
2021/05/09 04:23:13;;;;;;;1.70;0.68;;;33.40;23.20;;;;;;4359610;32;20077;-36
2021/05/09 04:25:41;;;;;;;3.08;0.60;;;33.50;23.30;;;;;;4372314;32;20066;-38
2021/05/09 04:28:07;;;;;;;2.20;0.60;;;33.60;23.20;;;;;;4373482;32;20070;-37
2021/05/09 04:30:34;;;;;;;0.55;0.37;;;33.70;23.10;;;;;;4359733;32;20077;-37
2021/05/09 04:33:03;;;;;;;4.97;1.85;;;33.80;23.10;;;;;;4373078;32;20066;-37
2021/05/09 04:35:30;;;;;;;2.25;0.43;;;33.90;23.10;;;;;;4373600;32;20086;-38
2021/05/09 04:37:56;;;;;;;5.25;0.80;;;34.00;22.90;;;;;;4373699;32;20054;-38
2021/05/09 04:40:23;;;;;;;3.50;0.60;;;34.00;22.90;;;;;;4372499;32;20105;-38
2021/05/09 04:42:49;;;;;;;9.13;0.95;;;34.00;22.80;;;;;;4373302;32;20155;-37
2021/05/09 04:45:16;;;;;;;4.20;0.60;;;34.00;22.70;;;;;;4371959;32;20066;-39
2021/05/09 04:47:43;;;;;;;4.45;0.65;;;34.10;22.80;;;;;;4371818;32;20064;-38
2021/05/09 04:50:10;;;;;;;4.15;0.55;;;34.20;22.80;;;;;;4372852;32;20077;-40
2021/05/09 04:52:37;;;;;;;2.15;0.50;;;34.20;22.70;;;;;;4373074;32;20071;-37
2021/05/09 04:55:05;;;;;;;2.17;0.60;;;34.20;22.50;;;;;;4373048;32;20063;-37
2021/05/09 04:57:33;;;;;;;7.20;0.80;;;34.20;22.60;;;;;;4371588;32;20074;-36
2021/05/09 05:00:02;;;;;;;2.85;0.50;;;34.20;22.60;;;;;;4373016;32;20060;-37
2021/05/09 05:02:28;;;;;;;3.08;0.77;;;34.20;22.60;;;;;;4372743;32;20077;-34
2021/05/09 05:04:55;;;;;;;1.45;0.60;;;34.10;22.60;;;;;;4372854;32;20062;-39
2021/05/09 05:07:21;;;;;;;2.35;0.60;;;34.10;22.80;;;;;;4372848;32;20062;-42
2021/05/09 05:09:48;;;;;;;6.55;0.70;;;34.10;22.70;;;;;;4373377;32;20594;-38
2021/05/09 05:12:14;;;;;;;2.15;0.60;;;34.10;22.70;;;;;;4373064;32;20065;-37
2021/05/09 05:14:41;;;;;;;1.92;0.50;;;34.20;22.70;;;;;;4373059;32;20096;-39
2021/05/09 05:17:07;;;;;;;3.22;0.60;;;34.40;22.60;;;;;;4371074;32;20674;-36
2021/05/09 05:19:34;;;;;;;2.72;0.55;;;34.50;22.60;;;;;;4372891;32;20102;-36
2021/05/09 05:22:01;;;;;;;4.80;0.55;;;34.60;22.70;;;;;;4372765;32;20066;-36
2021/05/09 05:24:27;;;;;;;4.18;0.50;;;34.70;22.80;;;;;;4372498;32;20056;-37
2021/05/09 05:26:54;;;;;;;3.50;0.60;;;34.90;22.50;;;;;;4372637;32;20073;-37
2021/05/09 05:29:21;;;;;;;6.97;0.60;;;35.00;22.40;;;;;;4372797;32;20062;-38
2021/05/09 05:31:50;;;;;;;2.55;0.65;;;35.20;22.20;;;;;;4373570;32;20152;-38
2021/05/09 05:34:18;;;;;;;1.00;0.50;;;35.40;22.20;;;;;;4375621;32;20590;-38
2021/05/09 05:36:45;;;;;;;3.08;0.57;;;35.60;22.00;;;;;;4375999;32;20069;-39
2021/05/09 05:39:12;;;;;;;1.95;0.80;;;35.80;21.80;;;;;;4374586;32;20477;-39
2021/05/09 05:41:39;;;;;;;2.17;0.82;;;36.00;21.80;;;;;;4376036;32;20507;-38
2021/05/09 05:44:07;;;;;;;4.32;0.50;;;36.10;21.80;;;;;;4373163;32;20066;-37
2021/05/09 05:46:34;;;;;;;5.12;0.60;;;36.20;21.80;;;;;;4370295;32;20068;-39
2021/05/09 05:49:00;;;;;;;3.80;0.60;;;36.30;21.80;;;;;;4358513;32;20584;-39
2021/05/09 05:51:27;;;;;;;1.95;0.70;;;36.50;21.60;;;;;;4358140;32;20081;-38
2021/05/09 05:53:57;;;;;;;3.55;0.60;;;36.70;21.50;;;;;;4358072;32;20090;-38
2021/05/09 05:56:24;;;;;;;3.42;0.50;;;36.90;21.60;;;;;;4345791;32;20150;-38
2021/05/09 05:58:52;;;;;;;6.65;0.68;;;37.10;21.50;;;;;;4358169;32;20139;-38
2021/05/09 06:01:18;;;;;;;7.45;0.70;;;37.20;21.50;;;;;;4358323;32;20169;-39
2021/05/09 06:03:45;;;;;;;2.45;0.50;;;37.30;21.50;;;;;;4345505;32;20546;-39
2021/05/09 06:06:12;;;;;;;1.98;0.50;;;37.50;21.30;;;;;;4345819;32;20499;-38
2021/05/09 06:08:39;;;;;;;1.52;0.52;;;37.70;21.30;;;;;;4357775;32;20645;-39
2021/05/09 06:11:06;;;;;;;1.90;0.70;;;37.90;21.10;;;;;;4345820;32;20162;-39
2021/05/09 06:13:32;;;;;;;1.17;0.90;;;38.00;21.00;;;;;;4345451;32;20132;-37
2021/05/09 06:15:59;;;;;;;3.72;0.65;;;38.20;21.20;;;;;;4369599;32;20090;-39
2021/05/09 06:18:25;;;;;;;1.37;0.70;;;38.30;21.10;;;;;;4374930;32;20062;-39
2021/05/09 06:20:53;;;;;;;1.83;0.73;;;38.50;21.10;;;;;;4375234;32;20072;-37
2021/05/09 06:23:26;;;;;;;4.87;0.90;;;38.60;21.10;;;;;;4373612;32;20623;-39
2021/05/09 06:25:52;;;;;;;3.42;1.00;;;38.60;21.00;;;;;;4374954;32;20051;-39
2021/05/09 06:28:19;;;;;;;1.27;0.90;;;38.70;20.90;;;;;;4375103;32;20073;-38
2021/05/09 06:30:47;;;;;;;4.37;0.85;;;38.70;20.80;;;;;;4373495;32;20081;-38
2021/05/09 06:33:14;;;;;;;3.20;0.73;;;38.80;20.70;;;;;;4373446;32;20078;-39
2021/05/09 06:35:42;;;;;;;2.15;0.90;;;38.90;20.60;;;;;;4374714;32;20058;-38
2021/05/09 06:38:08;;;;;;;1.48;0.60;;;39.00;20.50;;;;;;4374685;32;20542;-38
2021/05/09 06:40:36;;;;;;;2.65;0.60;;;39.10;20.50;;;;;;4373156;32;20086;-36
2021/05/09 06:43:03;;;;;;;7.57;0.68;;;39.10;20.50;;;;;;4374563;32;20491;-39
2021/05/09 06:45:32;;;;;;;2.22;0.68;;;39.20;20.60;;;;;;4374626;32;20162;-37
2021/05/09 06:48:01;;;;;;;2.30;1.10;;;39.30;20.50;;;;;;4374870;32;20143;-37
2021/05/09 06:50:29;;;;;;;1.17;0.70;;;39.20;20.30;;;;;;4374321;32;20522;-38
2021/05/09 06:52:56;;;;;;;1.20;0.65;;;39.20;20.30;;;;;;4374477;32;20108;-38
2021/05/09 06:55:23;;;;;;;3.20;0.70;;;39.30;20.30;;;;;;4374113;32;20575;-38
2021/05/09 06:57:50;;;;;;;5.40;0.70;;;39.30;20.20;;;;;;4374629;32;20070;-38
2021/05/09 07:00:18;;;;;;;4.70;0.68;;;39.30;20.90;;;;;;4374916;32;20082;-39
2021/05/09 07:02:44;;;;;;;3.83;0.70;;;39.30;20.20;;;;;;4372647;32;20074;-38
2021/05/09 07:05:11;;;;;;;1.33;0.50;;;39.40;20.30;;;;;;4374410;32;20153;-37
2021/05/09 07:07:51;;;;;;;2.28;0.60;;;39.30;20.20;;;;;;4374623;32;20142;-37
2021/05/09 07:10:19;;;;;;;2.03;0.60;;;39.30;20.20;;;;;;4374305;32;20655;-38
2021/05/09 07:12:45;;;;;;;3.80;0.90;;;39.20;20.00;;;;;;4372880;32;20066;-38
2021/05/09 07:15:14;;;;;;;1.37;0.60;;;39.30;20.10;;;;;;4374112;32;20061;-39
2021/05/09 07:17:42;;;;;;;5.03;0.60;;;39.30;20.20;;;;;;4374705;32;20239;-38
2021/05/09 07:20:09;;;;;;;1.62;0.80;;;39.40;20.20;;;;;;4374688;32;20073;-45
2021/05/09 07:22:40;;;;;;;4.20;0.80;;;39.40;20.00;;;;;;4374521;32;20148;-38
2021/05/09 07:25:07;;;;;;;1.35;1.00;;;39.30;19.90;;;;;;4374123;32;20078;-37
2021/05/09 07:27:34;;;;;;;3.28;0.70;;;39.40;20.00;;;;;;4374396;32;20435;-38
2021/05/09 07:30:01;;;;;;;2.47;0.77;;;39.40;20.00;;;;;;4374151;32;20163;-38
2021/05/09 07:32:28;;;;;;;3.65;0.90;;;39.40;20.00;;;;;;4374094;32;20094;-38
2021/05/09 07:34:54;;;;;;;7.03;1.00;;;39.40;19.90;;;;;;4373835;32;20530;-37
2021/05/09 07:37:20;;;;;;;2.00;0.80;;;39.50;20.00;;;;;;4374145;32;20077;-38
2021/05/09 07:39:47;;;;;;;4.22;0.90;;;39.50;19.90;;;;;;4372411;32;20552;-37
2021/05/09 07:42:13;;;;;;;3.75;0.93;;;39.40;19.80;;;;;;4373994;32;20063;-36
2021/05/09 07:44:40;;;;;;;4.03;0.82;;;39.30;19.90;;;;;;4373985;32;20057;-37
2021/05/09 07:47:06;;;;;;;1.87;0.70;;;39.10;20.00;;;;;;4374051;32;20516;-38
2021/05/09 07:49:33;;;;;;;4.97;1.00;;;38.90;20.00;;;;;;4372200;32;20089;-41
2021/05/09 07:51:59;;;;;;;3.30;0.80;;;38.80;20.10;;;;;;4374105;32;20081;-38
2021/05/09 07:54:26;;;;;;;6.32;0.93;;;38.60;20.10;;;;;;4373064;32;20183;-36
2021/05/09 07:56:52;;;;;;;7.87;1.10;;;38.60;20.20;;;;;;4373380;32;20466;-37
2021/05/09 07:59:19;;;;;;;1.95;1.00;;;38.50;20.20;;;;;;4374198;32;20214;-38
2021/05/09 08:01:45;;;;;;;1.58;0.62;;;38.60;20.10;;;;;;4374086;32;20086;-38
2021/05/09 08:04:12;;;;;;;0.93;0.60;;;38.60;20.10;;;;;;4373510;32;20080;-38
2021/05/09 08:06:40;;;;;;;0.90;0.50;;;38.70;20.10;;;;;;4373850;32;20125;-38
2021/05/09 08:09:07;;;;;;;1.42;0.70;;;38.70;20.00;;;;;;4372528;32;20192;-39
2021/05/09 08:11:33;;;;;;;2.37;0.90;;;38.80;19.90;;;;;;4372078;32;20070;-39
2021/05/09 08:14:00;;;;;;;4.07;1.02;;;38.80;20.00;;;;;;4373571;32;20089;-40
2021/05/09 08:16:26;;;;;;;2.08;0.50;;;38.80;20.00;;;;;;4373858;32;20157;-38
2021/05/09 08:18:53;;;;;;;2.90;0.62;;;38.80;20.00;;;;;;4373186;32;20203;-39
2021/05/09 08:21:19;;;;;;;5.78;0.60;;;38.80;20.00;;;;;;4373454;32;20174;-39
2021/05/09 08:23:46;;;;;;;2.42;0.50;;;38.80;19.90;;;;;;4373476;32;20070;-38
2021/05/09 08:26:12;;;;;;;1.00;0.60;;;38.70;19.90;;;;;;4373309;32;20093;-38
2021/05/09 08:28:42;;;;;;;1.02;0.45;;;38.70;20.10;;;;;;4373388;32;20159;-39
2021/05/09 08:31:16;;;;;;;4.72;0.60;;;38.60;20.10;;;;;;4373687;32;20146;-39
2021/05/09 08:33:43;;;;;;;1.75;0.73;;;38.50;20.00;;;;;;4371774;32;20524;-38
2021/05/09 08:36:10;;;;;;;3.65;0.75;;;38.40;20.10;;;;;;4373680;32;20065;-38
2021/05/09 08:38:36;;;;;;;3.45;0.60;;;38.30;20.20;;;;;;4373387;32;20174;-38
2021/05/09 08:41:03;;;;;;;2.35;0.50;;;38.30;20.20;;;;;;4373054;32;20665;-38
2021/05/09 08:43:29;;;;;;;0.90;0.50;;;38.30;20.30;;;;;;4373297;32;20135;-39
2021/05/09 08:45:59;;;;;;;10.88;0.60;;;38.30;20.40;;;;;;4373068;32;20496;-38
2021/05/09 08:48:26;;;;;;;10.18;0.98;;;38.20;20.40;;;;;;4387316;32;20069;-39
2021/05/09 08:50:52;;;;;;;1.10;0.50;;;38.20;20.40;;;;;;4374185;32;20057;-38
2021/05/09 08:53:20;;;;;;;5.60;0.50;;;38.20;20.30;;;;;;4373993;32;20085;-38
2021/05/09 08:55:46;;;;;;;4.22;0.60;;;38.20;20.30;;;;;;4388063;32;20066;-38
2021/05/09 08:58:13;;;;;;;2.70;0.60;;;38.30;20.10;;;;;;4387935;32;20614;-39
2021/05/09 09:00:39;;;;;;;3.50;0.77;;;38.50;20.10;;;;;;4357962;32;20140;-38
2021/05/09 09:03:06;;;;;;;2.60;1.00;;;38.60;20.00;;;;;;4370463;32;20131;-37
2021/05/09 09:05:39;;;;;;;4.30;0.65;;;38.60;20.20;;;;;;4370057;32;20082;-39
2021/05/09 09:08:07;;;;;;;3.22;0.57;;;38.70;20.00;;;;;;4370627;32;20553;-38
2021/05/09 09:10:48;;;;;;;15.30;1.35;;;38.80;19.90;;;;;;4370417;32;20069;-39
2021/05/09 09:13:28;;;;;;;2.65;1.23;;;38.90;20.00;;;;;;4340154;33;20082;-39
2021/05/09 09:16:02;;;;;;;3.78;1.00;;;39.00;19.70;;;;;;4328400;33;20106;-37
2021/05/09 09:18:42;;;;;;;0.98;0.65;;;39.00;19.80;;;;;;4327805;33;20590;-38
2021/05/09 09:21:25;;;;;;;7.87;1.20;;;39.00;19.90;;;;;;4340180;33;20151;-39
2021/05/09 09:24:05;;;;;;;2.70;0.50;;;39.00;19.90;;;;;;4340414;33;20094;-39
2021/05/09 09:26:41;;;;;;;3.97;0.50;;;39.00;20.40;;;;;;4340499;33;20131;-37
2021/05/09 09:29:30;;;;;;;3.83;0.60;;;38.90;19.70;;;;;;4340501;33;20082;-38
2021/05/09 09:32:09;;;;;;;2.15;0.60;;;38.90;19.90;;;;;;4340949;33;20075;-38
2021/05/09 09:34:50;;;;;;;1.70;0.50;;;38.80;19.80;;;;;;4340526;33;20067;-38
2021/05/09 09:37:18;;;;;;;5.65;0.95;;;38.70;19.80;;;;;;4342507;32;20066;-38
2021/05/09 09:40:00;;;;;;;3.83;0.80;;;38.60;19.90;;;;;;4355162;32;20085;-35
2021/05/09 09:42:43;;;;;;;6.28;0.60;;;38.50;20.10;;;;;;4342924;32;20085;-38
2021/05/09 09:45:28;;;;;;;3.40;0.55;;;38.50;20.00;;;;;;4383250;32;20057;-38
2021/05/09 09:48:02;;;;;;;3.22;0.60;;;38.40;20.20;;;;;;4376502;32;20543;-38
2021/05/09 09:50:43;;;;;;;2.30;0.80;;;38.20;20.10;;;;;;4372485;32;20074;-37
2021/05/09 09:53:25;;;;;;;3.67;0.55;;;38.10;20.30;;;;;;4372183;32;20069;-37
2021/05/09 09:56:07;;;;;;;2.65;0.57;;;38.00;20.30;;;;;;4372561;32;20192;-38
2021/05/09 09:58:51;;;;;;;1.08;0.60;;;38.20;20.50;;;;;;4372684;32;20058;-39
2021/05/09 10:01:25;;;;;;;2.25;0.50;;;38.20;20.40;;;;;;4372483;32;20184;-37
2021/05/09 10:03:53;;;;;;;4.00;0.50;;;38.20;20.40;;;;;;4340056;32;20074;-38
2021/05/09 10:06:20;;;;;;;4.62;0.62;;;38.30;20.30;;;;;;4340415;32;20118;-39
2021/05/09 10:08:47;;;;;;;0.93;0.50;;;38.40;20.30;;;;;;4339994;33;20089;-38
2021/05/09 10:11:14;;;;;;;2.75;0.50;;;38.70;20.30;;;;;;4340175;32;20616;-40
2021/05/09 10:13:40;;;;;;;1.75;0.60;;;38.90;20.20;;;;;;4327933;33;20213;-40
2021/05/09 10:16:07;;;;;;;4.22;0.73;;;39.30;20.10;;;;;;4315554;33;20098;-39
2021/05/09 10:18:37;;;;;;;1.67;0.50;;;39.60;20.00;;;;;;4328850;33;20160;-39
2021/05/09 10:21:03;;;;;;;1.48;0.57;;;39.90;19.90;;;;;;4330792;33;20539;-43
2021/05/09 10:23:30;;;;;;;3.83;0.60;;;40.10;19.60;;;;;;4330836;33;20071;-44
2021/05/09 10:25:58;;;;;;;6.25;0.68;;;40.30;19.70;;;;;;4330585;33;20093;-43
2021/05/09 10:28:46;;;;;;;4.12;0.70;;;40.40;19.60;;;;;;4342737;32;20162;-42
2021/05/09 10:31:26;;;;;;;8.73;0.80;;;40.40;19.60;;;;;;4342606;32;20059;-42
2021/05/09 10:33:52;;;;;;;1.87;0.50;;;40.30;19.60;;;;;;4331916;33;20071;-43
2021/05/09 10:36:22;;;;;;;1.48;0.70;;;40.30;19.50;;;;;;4342706;32;20072;-42
2021/05/09 10:39:25;;;;;;;2.72;0.70;;;40.30;19.60;;;;;;4342540;32;20086;-44
2021/05/09 10:41:55;;;;;;;3.00;0.60;;;40.40;19.70;;;;;;4365840;32;20054;-43
2021/05/09 10:44:46;;;;;;;5.12;0.70;;;40.40;19.50;;;;;;4374592;32;20157;-43
2021/05/09 10:47:19;;;;;;;3.15;0.68;;;40.40;19.60;;;;;;4381236;32;20637;-42
2021/05/09 10:50:24;;;;;;;1.15;0.68;;;40.40;19.70;;;;;;4376165;32;20042;-43
2021/05/09 10:52:52;;;;;;;2.95;0.68;;;40.30;19.70;;;;;;4389946;32;20600;-43
2021/05/09 10:55:36;;;;;;;1.80;0.77;;;40.30;19.70;;;;;;4389918;32;20165;-43
2021/05/09 10:58:04;;;;;;;2.10;0.50;;;40.40;19.80;;;;;;4389865;32;20050;-42
2021/05/09 11:00:56;;;;;;;0.70;0.50;;;40.40;19.60;;;;;;4389416;32;20473;-42
2021/05/09 11:03:39;;;;;;;0.93;0.60;;;40.30;19.50;;;;;;4389730;32;20065;-43
2021/05/09 11:06:21;;;;;;;6.28;0.73;;;40.20;19.50;;;;;;4389851;32;20551;-43
2021/05/09 11:08:48;;;;;;;3.42;0.70;;;40.10;19.70;;;;;;4390167;32;20057;-44
2021/05/09 11:11:29;;;;;;;1.80;0.60;;;39.90;19.60;;;;;;4389901;32;20091;-43
2021/05/09 11:13:59;;;;;;;1.42;0.57;;;39.60;19.70;;;;;;4389328;32;20081;-43
2021/05/09 11:16:27;;;;;;;6.53;0.90;;;39.50;19.70;;;;;;4389420;32;20506;-43
2021/05/09 11:19:00;;;;;;;0.82;0.45;;;39.40;19.80;;;;;;4389521;32;20050;-42
2021/05/09 11:21:31;;;;;;;3.53;0.63;;;39.30;19.90;;;;;;4389325;32;20506;-43
2021/05/09 11:23:59;;;;;;;2.17;0.60;;;39.20;19.90;;;;;;4389271;32;20084;-43
2021/05/09 11:26:30;;;;;;;4.55;0.60;;;39.00;19.90;;;;;;4389380;32;20166;-43
2021/05/09 11:29:13;;;;;;;4.20;0.60;;;38.80;20.00;;;;;;4388845;32;20080;-43
2021/05/09 11:31:48;;;;;;;4.62;0.70;;;38.60;20.00;;;;;;4388830;32;20620;-41
2021/05/09 11:34:15;;;;;;;1.23;0.60;;;38.50;20.20;;;;;;4389078;32;20058;-43
2021/05/09 11:36:44;;;;;;;3.72;0.50;;;38.20;20.30;;;;;;4388938;32;20155;-42
2021/05/09 11:39:21;;;;;;;3.60;1.12;;;38.10;20.40;;;;;;4388961;32;20179;-43
2021/05/09 11:41:54;;;;;;;3.05;0.70;;;38.00;20.50;;;;;;4388963;32;20073;-42
2021/05/09 11:44:23;;;;;;;9.45;0.90;;;38.00;20.50;;;;;;4388932;32;20073;-36
2021/05/09 11:46:49;;;;;;;1.87;0.62;;;38.00;20.60;;;;;;4384766;32;20066;-43
2021/05/09 11:49:20;;;;;;;8.82;1.23;;;37.90;20.60;;;;;;4374036;32;20058;-43
2021/05/09 11:52:18;;;;;;;2.00;0.70;;;37.90;20.80;;;;;;4373838;32;20066;-43
2021/05/09 11:54:49;;;;;;;2.58;0.70;;;37.90;20.80;;;;;;4373011;32;20171;-43
2021/05/09 11:57:18;;;;;;;6.03;0.75;;;37.70;20.60;;;;;;4373625;32;20548;-43
2021/05/09 12:00:07;;;;;;;3.35;0.70;;;37.70;20.90;;;;;;4373497;32;20154;-43
2021/05/09 12:02:44;;;;;;;8.68;0.88;;;37.60;20.80;;;;;;4373296;32;20070;-44
2021/05/09 12:05:21;;;;;;;3.62;0.88;;;37.50;20.90;;;;;;4373640;32;20097;-43
2021/05/09 12:07:53;;;;;;;5.97;1.10;;;37.20;21.50;;;;;;4372370;32;20077;-42
2021/05/09 12:10:28;;;;;;;3.78;0.90;;;36.80;21.80;;;;;;4374058;32;20139;-44
2021/05/09 12:13:07;;;;;;;4.35;0.82;;;36.30;22.20;;;;;;4373541;32;20542;-43
2021/05/09 12:15:39;;;;;;;3.85;0.70;;;35.70;22.60;;;;;;4371819;32;20174;-43
2021/05/09 12:18:07;;;;;;;2.20;1.30;;;34.90;23.10;;;;;;4373546;32;20121;-43
2021/05/09 12:20:40;;;;;;;8.63;1.02;;;34.20;23.60;;;;;;4373403;32;20085;-44
2021/05/09 12:23:16;;;;;;;2.12;0.75;;;33.60;24.10;;;;;;4373066;32;20498;-43
2021/05/09 12:25:47;;;;;;;6.00;1.45;;;33.00;24.60;;;;;;4373053;32;20069;-44
2021/05/09 12:28:27;;;;;;;5.68;3.03;;;32.50;25.00;;;;;;4373262;32;20613;-42
2021/05/09 12:30:54;;;;;;;6.32;1.10;;;32.00;25.50;;;;;;4373766;32;20065;-42
2021/05/09 12:33:30;;;;;;;4.70;1.23;;;31.60;25.80;;;;;;4373803;32;20067;-43
2021/05/09 12:35:58;;;;;;;7.03;1.10;;;31.40;26.30;;;;;;4373474;32;20084;-43
2021/05/09 12:38:30;;;;;;;6.65;0.90;;;31.20;26.50;;;;;;4373482;32;20065;-41
2021/05/09 12:41:07;;;;;;;4.45;0.95;;;31.20;26.70;;;;;;4373007;32;20130;-44
2021/05/09 12:43:51;;;;;;;8.18;1.02;;;31.30;26.60;;;;;;4359045;32;20134;-43
2021/05/09 12:46:33;;;;;;;8.02;0.70;;;31.40;26.70;;;;;;4372433;32;20158;-44
2021/05/09 12:49:23;;;;;;;2.58;0.80;;;31.70;26.50;;;;;;4387995;32;20176;-42
2021/05/09 12:51:58;;;;;;;3.03;0.80;;;32.00;26.40;;;;;;4388482;32;20066;-44
2021/05/09 12:54:49;;;;;;;4.97;1.75;;;32.20;26.20;;;;;;4388652;32;20065;-43
2021/05/09 12:57:22;;;;;;;10.13;0.95;;;32.50;26.20;;;;;;4387816;32;20392;-44